Terminal Aerodrome Forecast
Issued by NWS

Home | Current Version | Previous Version | Text Only | Print | Product List | Glossary On
Versions: 1 2 3 4 5 6 7 8 9 10 11 12 13 14 15 16 17 18 19 20 21 22 23 24
000
FTPA31 PHFO 062300
TAFOGG
TAF
PHOG 062335Z 0700/0724 04020G26KT P6SM FEW035 SCT060
     FM070400 05012KT P6SM FEW030 SCT060
     FM072000 05020G28KT P6SM FEW035 SCT060
      AMD LTD TO VIS AND WIND 0709/0716=

USA.gov is the U.S. government's official web portal to all federal, state and local government web resources and services.